Montauk, New York
Current Conditions -  °F | °C
As of 1:38 PM on Wednesday 26 Nov 2014 (Local Time) from KGON Reporting Station
Moderate Rain Moderate Rain  
Wind Chill: 28°   Ceiling: 4800
Heat Index: 37°   Visibility: 1.7mi
Dew Point: 37°   Wind: 15mph
Humidity: 100%   Direction: 10°N
Pressure: 30"   Gusts: NA
Location:  41.04°N, 71.95°W
Report Text: KGON 261838Z 01013KT 1 3/4SM RA BR FEW009 BKN048 OVC060 03/03 A3000 RMK AO2 P0005 T00280028
Loading
Personal Weather Stations






























Interactive Weather Map New forecast layout! Learn more

10-Day Weather Forecast

Advertisements
Track Severe Weather on mobile